Terminal Aerodrome Forecast
Issued by NWS

Home | Current Version | Previous Version | Text Only | Print | Product List | Glossary On
Versions: 1 2 3 4 5 6 7 8 9 10 11 12 13 14 15 16 17 18 19 20 21 22 23 24 25
000
FTUS43 KAPX 290847 AAA
TAFTVC
TAF AMD
KTVC 290847Z 2909/3006 23004KT 5SM -SHRA BR BKN008 OVC015
     FM291500 VRB03KT P6SM VCSH OVC040
     FM300200 00000KT P6SM SCT050=

USA.gov is the U.S. government's official web portal to all federal, state and local government web resources and services.